sensor_id;sensor_type;location;lat;lon;timestamp;pressure;altitude;pressure_sealevel;temperature;humidity
46756;BME280;32506;52.826;-1.192;2023-09-18T00:00:43;99656.75;;;18.54;59.50
46756;BME280;32506;52.826;-1.192;2023-09-18T00:03:09;99652.41;;;18.53;59.77
46756;BME280;32506;52.826;-1.192;2023-09-18T00:05:35;99646.22;;;18.52;59.52
46756;BME280;32506;52.826;-1.192;2023-09-18T00:08:00;99642.69;;;18.52;59.06
46756;BME280;32506;52.826;-1.192;2023-09-18T00:10:27;99641.88;;;18.51;59.08
46756;BME280;32506;52.826;-1.192;2023-09-18T00:12:54;99641.09;;;18.51;59.22
46756;BME280;32506;52.826;-1.192;2023-09-18T00:15:20;99629.44;;;18.50;59.72
46756;BME280;32506;52.826;-1.192;2023-09-18T00:17:45;99612.44;;;18.50;59.70
46756;BME280;32506;52.826;-1.192;2023-09-18T00:20:11;99605.41;;;18.49;59.82
46756;BME280;32506;52.826;-1.192;2023-09-18T00:22:37;99618.94;;;18.49;59.63
46756;BME280;32506;52.826;-1.192;2023-09-18T00:25:02;99604.59;;;18.48;59.40
46756;BME280;32506;52.826;-1.192;2023-09-18T00:27:29;99612.72;;;18.48;59.20
46756;BME280;32506;52.826;-1.192;2023-09-18T00:29:54;99600.00;;;18.49;59.70
46756;BME280;32506;52.826;-1.192;2023-09-18T00:32:19;99598.38;;;18.48;59.21
46756;BME280;32506;52.826;-1.192;2023-09-18T00:34:45;99583.25;;;18.47;59.60
46756;BME280;32506;52.826;-1.192;2023-09-18T00:37:10;99577.03;;;18.46;59.45
46756;BME280;32506;52.826;-1.192;2023-09-18T00:39:37;99562.69;;;18.45;59.36
46756;BME280;32506;52.826;-1.192;2023-09-18T00:42:03;99571.59;;;18.46;59.43
46756;BME280;32506;52.826;-1.192;2023-09-18T00:44:28;99567.28;;;18.45;59.15
46756;BME280;32506;52.826;-1.192;2023-09-18T00:46:55;99561.09;;;18.44;59.02
46756;BME280;32506;52.826;-1.192;2023-09-18T00:49:22;99566.50;;;18.44;58.53
46756;BME280;32506;52.826;-1.192;2023-09-18T00:51:48;99560.28;;;18.44;58.47
46756;BME280;32506;52.826;-1.192;2023-09-18T00:54:16;99554.06;;;18.43;58.38
46756;BME280;32506;52.826;-1.192;2023-09-18T00:56:44;99540.03;;;18.41;58.36
46756;BME280;32506;52.826;-1.192;2023-09-18T00:59:10;99541.91;;;18.41;58.11
46756;BME280;32506;52.826;-1.192;2023-09-18T01:01:37;99539.22;;;18.41;58.46
46756;BME280;32506;52.826;-1.192;2023-09-18T01:04:03;99533.00;;;18.40;58.27
46756;BME280;32506;52.826;-1.192;2023-09-18T01:06:29;99530.31;;;18.40;57.92
46756;BME280;32506;52.826;-1.192;2023-09-18T01:08:56;99524.09;;;18.40;57.89
46756;BME280;32506;52.826;-1.192;2023-09-18T01:17:04;99496.03;;;18.36;57.71
46756;BME280;32506;52.826;-1.192;2023-09-18T01:22:00;99492.78;;;18.34;57.22
46756;BME280;32506;52.826;-1.192;2023-09-18T01:24:25;99484.69;;;18.34;57.26
46756;BME280;32506;52.826;-1.192;2023-09-18T01:26:51;99481.19;;;18.33;57.23
46756;BME280;32506;52.826;-1.192;2023-09-18T01:29:16;99477.66;;;18.33;57.14
46756;BME280;32506;52.826;-1.192;2023-09-18T01:31:45;99478.47;;;18.33;57.04
46756;BME280;32506;52.826;-1.192;2023-09-18T01:34:25;99484.16;;;18.32;57.29
46756;BME280;32506;52.826;-1.192;2023-09-18T01:36:52;99489.56;;;18.32;57.26
46756;BME280;32506;52.826;-1.192;2023-09-18T01:39:19;99485.28;;;18.31;57.61
46756;BME280;32506;52.826;-1.192;2023-09-18T01:41:46;99480.66;;;18.31;57.35
46756;BME280;32506;52.826;-1.192;2023-09-18T01:44:12;99467.13;;;18.31;57.70
46756;BME280;32506;52.826;-1.192;2023-09-18T01:46:38;99466.34;;;18.31;57.70
46756;BME280;32506;52.826;-1.192;2023-09-18T01:49:03;99460.94;;;18.31;57.83
46756;BME280;32506;52.826;-1.192;2023-09-18T01:51:29;99454.69;;;18.30;57.68
46756;BME280;32506;52.826;-1.192;2023-09-18T01:53:56;99445.00;;;18.29;57.63
46756;BME280;32506;52.826;-1.192;2023-09-18T01:56:22;99437.69;;;18.30;57.74
46756;BME280;32506;52.826;-1.192;2023-09-18T01:58:49;99421.44;;;18.30;57.60
46756;BME280;32506;52.826;-1.192;2023-09-18T02:01:14;99415.25;;;18.29;57.62
46756;BME280;32506;52.826;-1.192;2023-09-18T02:03:39;99420.66;;;18.29;57.60
46756;BME280;32506;52.826;-1.192;2023-09-18T02:06:10;99410.63;;;18.30;57.67
46756;BME280;32506;52.826;-1.192;2023-09-18T02:08:35;99410.09;;;18.27;57.64
46756;BME280;32506;52.826;-1.192;2023-09-18T02:11:01;99397.41;;;18.28;57.55
46756;BME280;32506;52.826;-1.192;2023-09-18T02:13:28;99397.41;;;18.28;57.83
46756;BME280;32506;52.826;-1.192;2023-09-18T02:15:55;99397.13;;;18.30;58.36
46756;BME280;32506;52.826;-1.192;2023-09-18T02:18:21;99389.28;;;18.28;58.22
46756;BME280;32506;52.826;-1.192;2023-09-18T02:20:46;99384.69;;;18.28;58.50
46756;BME280;32506;52.826;-1.192;2023-09-18T02:23:17;99373.88;;;18.28;58.76
46756;BME280;32506;52.826;-1.192;2023-09-18T02:25:43;99370.38;;;18.28;58.75
46756;BME280;32506;52.826;-1.192;2023-09-18T02:28:09;99373.88;;;18.28;58.79
46756;BME280;32506;52.826;-1.192;2023-09-18T02:30:34;99370.38;;;18.28;58.61
46756;BME280;32506;52.826;-1.192;2023-09-18T02:33:00;99364.13;;;18.27;58.69
46756;BME280;32506;52.826;-1.192;2023-09-18T02:35:28;99366.03;;;18.27;59.27
46756;BME280;32506;52.826;-1.192;2023-09-18T02:37:54;99369.53;;;18.27;59.10
46756;BME280;32506;52.826;-1.192;2023-09-18T02:40:19;99369.53;;;18.27;58.90
46756;BME280;32506;52.826;-1.192;2023-09-18T02:42:44;99353.31;;;18.27;59.14
46756;BME280;32506;52.826;-1.192;2023-09-18T02:45:10;99342.81;;;18.26;59.40
46756;BME280;32506;52.826;-1.192;2023-09-18T02:47:35;99346.03;;;18.28;59.67
46756;BME280;32506;52.826;-1.192;2023-09-18T02:50:04;99351.72;;;18.26;59.76
46756;BME280;32506;52.826;-1.192;2023-09-18T02:52:30;99347.91;;;18.27;59.99
46756;BME280;32506;52.826;-1.192;2023-09-18T02:54:56;99349.81;;;18.27;59.88
46756;BME280;32506;52.826;-1.192;2023-09-18T02:57:21;99342.50;;;18.27;60.36
46756;BME280;32506;52.826;-1.192;2023-09-18T02:59:47;99356.84;;;18.28;60.25
46756;BME280;32506;52.826;-1.192;2023-09-18T03:02:12;99351.44;;;18.28;60.87
46756;BME280;32506;52.826;-1.192;2023-09-18T03:04:38;99340.63;;;18.28;61.14
46756;BME280;32506;52.826;-1.192;2023-09-18T03:07:03;99341.41;;;18.28;61.88
46756;BME280;32506;52.826;-1.192;2023-09-18T03:09:29;99332.22;;;18.30;63.02
46756;BME280;32506;52.826;-1.192;2023-09-18T03:11:54;99322.19;;;18.30;62.39
46756;BME280;32506;52.826;-1.192;2023-09-18T03:14:20;99313.28;;;18.30;62.16
46756;BME280;32506;52.826;-1.192;2023-09-18T03:16:45;99305.97;;;18.30;62.46
46756;BME280;32506;52.826;-1.192;2023-09-18T03:19:11;99300.53;;;18.30;62.09
46756;BME280;32506;52.826;-1.192;2023-09-18T03:21:36;99297.06;;;18.30;61.76
46756;BME280;32506;52.826;-1.192;2023-09-18T03:24:02;99290.84;;;18.29;61.32
46756;BME280;32506;52.826;-1.192;2023-09-18T03:26:28;99289.25;;;18.28;61.43
46756;BME280;32506;52.826;-1.192;2023-09-18T03:28:53;99278.72;;;18.26;61.28
46756;BME280;32506;52.826;-1.192;2023-09-18T03:31:18;99284.13;;;18.26;61.03
46756;BME280;32506;52.826;-1.192;2023-09-18T03:33:44;99291.41;;;18.26;60.83
46756;BME280;32506;52.826;-1.192;2023-09-18T03:36:09;99292.25;;;18.26;60.92
46756;BME280;32506;52.826;-1.192;2023-09-18T03:38:37;99291.72;;;18.24;60.74
46756;BME280;32506;52.826;-1.192;2023-09-18T03:41:02;99285.00;;;18.22;60.49
46756;BME280;32506;52.826;-1.192;2023-09-18T03:43:27;99281.19;;;18.23;60.39
46756;BME280;32506;52.826;-1.192;2023-09-18T03:45:53;99277.97;;;18.21;60.49
46756;BME280;32506;52.826;-1.192;2023-09-18T03:48:18;99280.97;;;18.19;60.48
46756;BME280;32506;52.826;-1.192;2023-09-18T03:50:47;99276.97;;;18.17;60.38
46756;BME280;32506;52.826;-1.192;2023-09-18T03:53:12;99274.56;;;18.15;60.83
46756;BME280;32506;52.826;-1.192;2023-09-18T03:55:38;99283.75;;;18.14;60.76
46756;BME280;32506;52.826;-1.192;2023-09-18T03:58:04;99289.78;;;18.11;60.66
46756;BME280;32506;52.826;-1.192;2023-09-18T04:00:30;99288.97;;;18.10;60.75
46756;BME280;32506;52.826;-1.192;2023-09-18T04:02:55;99294.94;;;18.07;60.76
46756;BME280;32506;52.826;-1.192;2023-09-18T04:05:21;99294.94;;;18.07;60.38
46756;BME280;32506;52.826;-1.192;2023-09-18T04:07:47;99288.53;;;18.03;60.27
46756;BME280;32506;52.826;-1.192;2023-09-18T04:10:13;99283.41;;;18.02;60.43
46756;BME280;32506;52.826;-1.192;2023-09-18T04:12:44;99288.81;;;18.02;60.32
46756;BME280;32506;52.826;-1.192;2023-09-18T04:15:14;99290.50;;;17.98;60.56
46756;BME280;32506;52.826;-1.192;2023-09-18T04:17:39;99284.31;;;17.97;60.42
46756;BME280;32506;52.826;-1.192;2023-09-18T04:20:05;99262.16;;;17.95;60.42
46756;BME280;32506;52.826;-1.192;2023-09-18T04:22:31;99268.97;;;17.92;60.53
46756;BME280;32506;52.826;-1.192;2023-09-18T04:24:56;99253.84;;;17.91;60.51
46756;BME280;32506;52.826;-1.192;2023-09-18T04:27:22;99257.09;;;17.88;60.38
46756;BME280;32506;52.826;-1.192;2023-09-18T04:29:47;99256.59;;;17.86;60.56
46756;BME280;32506;52.826;-1.192;2023-09-18T04:32:12;99265.81;;;17.85;60.44
46756;BME280;32506;52.826;-1.192;2023-09-18T04:34:38;99269.91;;;17.83;60.28
46756;BME280;32506;52.826;-1.192;2023-09-18T04:37:04;99279.09;;;17.82;60.25
46756;BME280;32506;52.826;-1.192;2023-09-18T04:39:29;99275.06;;;17.79;60.33
46756;BME280;32506;52.826;-1.192;2023-09-18T04:41:55;99271.88;;;17.77;60.20
46756;BME280;32506;52.826;-1.192;2023-09-18T04:44:20;99273.25;;;17.74;60.48
46756;BME280;32506;52.826;-1.192;2023-09-18T04:46:46;99267.34;;;17.72;60.79
46756;BME280;32506;52.826;-1.192;2023-09-18T04:49:11;99253.63;;;17.69;61.69
46756;BME280;32506;52.826;-1.192;2023-09-18T04:51:38;99257.41;;;17.68;62.03
46756;BME280;32506;52.826;-1.192;2023-09-18T04:54:04;99279.31;;;17.66;62.31
46756;BME280;32506;52.826;-1.192;2023-09-18T04:56:30;99260.72;;;17.65;61.99
46756;BME280;32506;52.826;-1.192;2023-09-18T04:58:55;99258.28;;;17.63;62.23
46756;BME280;32506;52.826;-1.192;2023-09-18T05:01:23;99255.88;;;17.61;61.94
46756;BME280;32506;52.826;-1.192;2023-09-18T05:03:50;99260.78;;;17.59;61.88
46756;BME280;32506;52.826;-1.192;2023-09-18T05:06:16;99251.84;;;17.59;61.59
46756;BME280;32506;52.826;-1.192;2023-09-18T05:08:43;99253.75;;;17.58;61.43
46756;BME280;32506;52.826;-1.192;2023-09-18T05:11:09;99253.25;;;17.56;61.34
46756;BME280;32506;52.826;-1.192;2023-09-18T05:13:34;99258.94;;;17.55;61.61
46756;BME280;32506;52.826;-1.192;2023-09-18T05:15:59;99261.94;;;17.53;62.11
46756;BME280;32506;52.826;-1.192;2023-09-18T05:18:26;99255.75;;;17.53;62.35
46756;BME280;32506;52.826;-1.192;2023-09-18T05:20:52;99249.81;;;17.51;62.09
46756;BME280;32506;52.826;-1.192;2023-09-18T05:23:17;99245.50;;;17.50;62.53
46756;BME280;32506;52.826;-1.192;2023-09-18T05:25:43;99246.63;;;17.49;63.08
46756;BME280;32506;52.826;-1.192;2023-09-18T05:28:09;99244.72;;;17.49;62.65
46756;BME280;32506;52.826;-1.192;2023-09-18T05:30:35;99242.31;;;17.48;62.73
46756;BME280;32506;52.826;-1.192;2023-09-18T05:33:04;99248.00;;;17.46;62.57
46756;BME280;32506;52.826;-1.192;2023-09-18T05:35:34;99248.00;;;17.46;62.33
46756;BME280;32506;52.826;-1.192;2023-09-18T05:38:02;99242.38;;;17.42;62.76
46756;BME280;32506;52.826;-1.192;2023-09-18T05:40:28;99242.38;;;17.42;62.98
46756;BME280;32506;52.826;-1.192;2023-09-18T05:42:54;99240.75;;;17.41;62.90
46756;BME280;32506;52.826;-1.192;2023-09-18T05:45:20;99234.84;;;17.39;62.88
46756;BME280;32506;52.826;-1.192;2023-09-18T05:47:47;99242.13;;;17.39;63.01
46756;BME280;32506;52.826;-1.192;2023-09-18T05:50:13;99242.13;;;17.39;63.00
46756;BME280;32506;52.826;-1.192;2023-09-18T05:52:40;99245.41;;;17.36;63.28
46756;BME280;32506;52.826;-1.192;2023-09-18T05:55:06;99234.63;;;17.36;63.43
46756;BME280;32506;52.826;-1.192;2023-09-18T05:57:35;99245.41;;;17.36;63.44
46756;BME280;32506;52.826;-1.192;2023-09-18T06:00:00;99247.34;;;17.35;63.93
46756;BME280;32506;52.826;-1.192;2023-09-18T06:02:26;99248.41;;;17.34;63.91
46756;BME280;32506;52.826;-1.192;2023-09-18T06:04:56;99251.91;;;17.35;64.06
46756;BME280;32506;52.826;-1.192;2023-09-18T06:07:27;99254.63;;;17.35;63.99
46756;BME280;32506;52.826;-1.192;2023-09-18T06:09:52;99250.31;;;17.34;64.57
46756;BME280;32506;52.826;-1.192;2023-09-18T06:12:18;99247.63;;;17.34;64.61
46756;BME280;32506;52.826;-1.192;2023-09-18T06:14:44;99250.59;;;17.32;64.73
46756;BME280;32506;52.826;-1.192;2023-09-18T06:17:10;99252.19;;;17.33;64.61
46756;BME280;32506;52.826;-1.192;2023-09-18T06:19:35;99243.31;;;17.33;64.87
46756;BME280;32506;52.826;-1.192;2023-09-18T06:22:01;99244.41;;;17.32;65.06
46756;BME280;32506;52.826;-1.192;2023-09-18T06:24:27;99247.88;;;17.32;64.68
46756;BME280;32506;52.826;-1.192;2023-09-18T06:26:53;99239.78;;;17.32;64.50
46756;BME280;32506;52.826;-1.192;2023-09-18T06:29:18;99233.91;;;17.30;64.36
46756;BME280;32506;52.826;-1.192;2023-09-18T06:31:44;99242.78;;;17.31;64.20
46756;BME280;32506;52.826;-1.192;2023-09-18T06:34:09;99242.78;;;17.31;64.19
46756;BME280;32506;52.826;-1.192;2023-09-18T06:36:35;99247.41;;;17.30;64.38
46756;BME280;32506;52.826;-1.192;2023-09-18T06:39:00;99244.69;;;17.30;64.62
46756;BME280;32506;52.826;-1.192;2023-09-18T06:41:26;99249.00;;;17.31;64.64
46756;BME280;32506;52.826;-1.192;2023-09-18T06:43:51;99250.09;;;17.30;64.60
46756;BME280;32506;52.826;-1.192;2023-09-18T06:46:17;99249.00;;;17.31;64.54
46756;BME280;32506;52.826;-1.192;2023-09-18T06:48:43;99250.88;;;17.31;64.30
46756;BME280;32506;52.826;-1.192;2023-09-18T06:51:11;99251.41;;;17.33;64.27
46756;BME280;32506;52.826;-1.192;2023-09-18T06:53:36;99246.31;;;17.31;64.13
46756;BME280;32506;52.826;-1.192;2023-09-18T06:56:02;99246.00;;;17.33;64.51
46756;BME280;32506;52.826;-1.192;2023-09-18T06:58:27;99246.81;;;17.33;64.13
46756;BME280;32506;52.826;-1.192;2023-09-18T07:00:52;99240.31;;;17.34;64.21
46756;BME280;32506;52.826;-1.192;2023-09-18T07:03:18;99241.09;;;17.35;64.72
46756;BME280;32506;52.826;-1.192;2023-09-18T07:05:43;99240.31;;;17.34;64.27
46756;BME280;32506;52.826;-1.192;2023-09-18T07:08:09;99231.91;;;17.36;64.18
46756;BME280;32506;52.826;-1.192;2023-09-18T07:10:37;99235.41;;;17.36;64.43
46756;BME280;32506;52.826;-1.192;2023-09-18T07:13:03;99237.84;;;17.38;64.01
46756;BME280;32506;52.826;-1.192;2023-09-18T07:15:29;99229.16;;;17.41;64.31
46756;BME280;32506;52.826;-1.192;2023-09-18T07:17:54;99226.69;;;17.44;64.16
46756;BME280;32506;52.826;-1.192;2023-09-18T07:20:20;99232.59;;;17.47;64.95
46756;BME280;32506;52.826;-1.192;2023-09-18T07:22:48;99223.88;;;17.50;65.01
46756;BME280;32506;52.826;-1.192;2023-09-18T07:25:14;99219.81;;;17.52;65.83
46756;BME280;32506;52.826;-1.192;2023-09-18T07:27:39;99218.13;;;17.56;65.72
46756;BME280;32506;52.826;-1.192;2023-09-18T07:30:10;99216.72;;;17.59;65.26
46756;BME280;32506;52.826;-1.192;2023-09-18T07:32:36;99223.16;;;17.63;64.65
46756;BME280;32506;52.826;-1.192;2023-09-18T07:35:03;99225.28;;;17.66;64.68
46756;BME280;32506;52.826;-1.192;2023-09-18T07:37:31;99216.59;;;17.69;65.39
46756;BME280;32506;52.826;-1.192;2023-09-18T07:39:57;99216.22;;;17.76;65.18
46756;BME280;32506;52.826;-1.192;2023-09-18T07:42:26;99219.94;;;17.80;64.75
46756;BME280;32506;52.826;-1.192;2023-09-18T07:44:52;99219.34;;;17.83;65.44
46756;BME280;32506;52.826;-1.192;2023-09-18T07:47:18;99217.38;;;17.89;64.77
46756;BME280;32506;52.826;-1.192;2023-09-18T07:49:44;99213.81;;;17.93;65.31
46756;BME280;32506;52.826;-1.192;2023-09-18T07:52:09;99207.53;;;17.98;64.76
46756;BME280;32506;52.826;-1.192;2023-09-18T07:54:35;99213.13;;;18.02;64.99
46756;BME280;32506;52.826;-1.192;2023-09-18T07:57:00;99214.16;;;18.06;65.63
46756;BME280;32506;52.826;-1.192;2023-09-18T07:59:26;99203.25;;;18.11;65.32
46756;BME280;32506;52.826;-1.192;2023-09-18T08:01:52;99207.28;;;18.14;64.77
46756;BME280;32506;52.826;-1.192;2023-09-18T08:04:20;99208.28;;;18.18;64.45
46756;BME280;32506;52.826;-1.192;2023-09-18T08:06:45;99215.78;;;18.21;64.45
46756;BME280;32506;52.826;-1.192;2023-09-18T08:09:11;99209.00;;;18.23;64.52
46756;BME280;32506;52.826;-1.192;2023-09-18T08:11:38;99213.00;;;18.26;64.50
46756;BME280;32506;52.826;-1.192;2023-09-18T08:14:07;99213.22;;;18.30;64.27
46756;BME280;32506;52.826;-1.192;2023-09-18T08:16:33;99197.47;;;18.32;64.55
46756;BME280;32506;52.826;-1.192;2023-09-18T08:19:00;99197.69;;;18.35;64.56
46756;BME280;32506;52.826;-1.192;2023-09-18T08:21:26;99204.13;;;18.39;63.94
46756;BME280;32506;52.826;-1.192;2023-09-18T08:23:54;99195.44;;;18.42;63.95
46756;BME280;32506;52.826;-1.192;2023-09-18T08:26:19;99200.44;;;18.49;64.61
46756;BME280;32506;52.826;-1.192;2023-09-18T08:28:46;99193.31;;;18.53;64.71
46756;BME280;32506;52.826;-1.192;2023-09-18T08:31:11;99185.09;;;18.58;64.81
46756;BME280;32506;52.826;-1.192;2023-09-18T08:33:37;99186.91;;;18.63;64.30
46756;BME280;32506;52.826;-1.192;2023-09-18T08:36:02;99178.69;;;18.68;64.46
46756;BME280;32506;52.826;-1.192;2023-09-18T08:38:28;99182.31;;;18.77;64.90
46756;BME280;32506;52.826;-1.192;2023-09-18T08:40:54;99177.59;;;18.83;64.96
46756;BME280;32506;52.826;-1.192;2023-09-18T08:43:21;99176.38;;;18.89;65.04
46756;BME280;32506;52.826;-1.192;2023-09-18T08:45:56;99185.41;;;18.99;64.95
46756;BME280;32506;52.826;-1.192;2023-09-18T08:48:28;99167.16;;;19.04;64.98
46756;BME280;32506;52.826;-1.192;2023-09-18T08:51:01;99173.16;;;19.15;65.12
46756;BME280;32506;52.826;-1.192;2023-09-18T08:53:34;99171.03;;;19.26;65.28
46756;BME280;32506;52.826;-1.192;2023-09-18T08:56:01;99173.50;;;19.36;64.94
46756;BME280;32506;52.826;-1.192;2023-09-18T08:58:33;99165.66;;;19.49;65.11
46756;BME280;32506;52.826;-1.192;2023-09-18T09:01:02;99172.41;;;19.60;64.81
46756;BME280;32506;52.826;-1.192;2023-09-18T09:03:29;99176.47;;;19.71;65.15
46756;BME280;32506;52.826;-1.192;2023-09-18T09:05:56;99166.25;;;19.82;64.74
46756;BME280;32506;52.826;-1.192;2023-09-18T09:08:21;99160.22;;;19.94;64.81
46756;BME280;32506;52.826;-1.192;2023-09-18T09:10:48;99154.25;;;20.06;64.54
46756;BME280;32506;52.826;-1.192;2023-09-18T09:13:14;99157.66;;;20.20;64.40
46756;BME280;32506;52.826;-1.192;2023-09-18T09:15:47;99158.38;;;20.35;64.35
46756;BME280;32506;52.826;-1.192;2023-09-18T09:18:14;99157.94;;;20.50;64.46
46756;BME280;32506;52.826;-1.192;2023-09-18T09:21:03;99146.06;;;20.69;63.85
46756;BME280;32506;52.826;-1.192;2023-09-18T09:23:48;99152.66;;;20.85;63.62
46756;BME280;32506;52.826;-1.192;2023-09-18T09:26:16;99155.25;;;20.99;63.32
46756;BME280;32506;52.826;-1.192;2023-09-18T09:28:43;99154.44;;;21.16;63.16
46756;BME280;32506;52.826;-1.192;2023-09-18T09:31:10;99139.59;;;21.31;62.67
46756;BME280;32506;52.826;-1.192;2023-09-18T09:33:36;99141.06;;;21.46;62.48
46756;BME280;32506;52.826;-1.192;2023-09-18T09:36:06;99133.53;;;21.60;62.29
46756;BME280;32506;52.826;-1.192;2023-09-18T09:38:34;99133.03;;;21.76;61.89
46756;BME280;32506;52.826;-1.192;2023-09-18T09:41:00;99145.31;;;21.91;61.42
46756;BME280;32506;52.826;-1.192;2023-09-18T09:43:27;99126.41;;;22.03;60.68
46756;BME280;32506;52.826;-1.192;2023-09-18T09:46:00;99121.56;;;22.18;60.34
46756;BME280;32506;52.826;-1.192;2023-09-18T09:48:26;99125.50;;;22.29;60.16
46756;BME280;32506;52.826;-1.192;2023-09-18T09:50:52;99125.66;;;22.41;59.87
46756;BME280;32506;52.826;-1.192;2023-09-18T09:53:45;99118.06;;;22.56;59.06
46756;BME280;32506;52.826;-1.192;2023-09-18T09:56:14;99120.06;;;22.68;58.66
46756;BME280;32506;52.826;-1.192;2023-09-18T09:58:39;99114.06;;;22.83;58.98
46756;BME280;32506;52.826;-1.192;2023-09-18T10:01:11;99112.66;;;22.98;58.65
46756;BME280;32506;52.826;-1.192;2023-09-18T10:03:43;99110.19;;;23.14;58.64
46756;BME280;32506;52.826;-1.192;2023-09-18T10:06:09;99117.41;;;23.31;58.74
46756;BME280;32506;52.826;-1.192;2023-09-18T10:08:38;99110.66;;;23.50;57.70
46756;BME280;32506;52.826;-1.192;2023-09-18T10:11:09;99115.16;;;23.67;57.86
46756;BME280;32506;52.826;-1.192;2023-09-18T10:13:39;99104.41;;;23.83;57.67
46756;BME280;32506;52.826;-1.192;2023-09-18T10:16:07;99097.31;;;23.90;57.10
46756;BME280;32506;52.826;-1.192;2023-09-18T10:18:42;99100.47;;;24.05;56.65
46756;BME280;32506;52.826;-1.192;2023-09-18T10:21:18;99103.56;;;24.16;56.14
46756;BME280;32506;52.826;-1.192;2023-09-18T10:26:32;99105.75;;;24.35;55.38
46756;BME280;32506;52.826;-1.192;2023-09-18T10:29:03;99113.69;;;24.40;54.65
46756;BME280;32506;52.826;-1.192;2023-09-18T10:31:33;99100.50;;;24.42;53.30
46756;BME280;32506;52.826;-1.192;2023-09-18T10:34:01;99110.97;;;24.40;52.77
46756;BME280;32506;52.826;-1.192;2023-09-18T10:36:31;99111.22;;;24.35;52.31
46756;BME280;32506;52.826;-1.192;2023-09-18T10:38:58;99116.56;;;24.31;52.72
46756;BME280;32506;52.826;-1.192;2023-09-18T10:41:26;99112.91;;;24.27;52.68
46756;BME280;32506;52.826;-1.192;2023-09-18T10:43:55;99103.34;;;24.21;51.73
46756;BME280;32506;52.826;-1.192;2023-09-18T10:46:24;99116.06;;;24.17;51.54
46756;BME280;32506;52.826;-1.192;2023-09-18T10:48:50;99122.56;;;24.12;51.79
46756;BME280;32506;52.826;-1.192;2023-09-18T10:51:22;99115.72;;;24.06;50.59
46756;BME280;32506;52.826;-1.192;2023-09-18T10:53:52;99111.63;;;24.00;50.82
46756;BME280;32506;52.826;-1.192;2023-09-18T10:56:19;99119.69;;;23.96;51.16
46756;BME280;32506;52.826;-1.192;2023-09-18T10:58:45;99117.19;;;23.91;50.87
46756;BME280;32506;52.826;-1.192;2023-09-18T11:01:12;99107.91;;;23.83;50.88
46756;BME280;32506;52.826;-1.192;2023-09-18T11:03:38;99118.59;;;23.76;51.21
46756;BME280;32506;52.826;-1.192;2023-09-18T11:06:06;99126.84;;;23.67;51.12
46756;BME280;32506;52.826;-1.192;2023-09-18T11:08:43;99126.63;;;23.60;51.18
46756;BME280;32506;52.826;-1.192;2023-09-18T11:11:10;99118.84;;;23.50;51.53
46756;BME280;32506;52.826;-1.192;2023-09-18T11:13:43;99128.25;;;23.40;51.65
46756;BME280;32506;52.826;-1.192;2023-09-18T11:18:54;99123.59;;;23.19;51.89
46756;BME280;32506;52.826;-1.192;2023-09-18T11:21:31;99127.16;;;23.11;52.12
46756;BME280;32506;52.826;-1.192;2023-09-18T11:24:09;99116.78;;;23.04;52.14
46756;BME280;32506;52.826;-1.192;2023-09-18T11:26:42;99116.84;;;22.95;52.41
46756;BME280;32506;52.826;-1.192;2023-09-18T11:29:10;99122.50;;;22.90;52.90
46756;BME280;32506;52.826;-1.192;2023-09-18T11:36:48;99115.19;;;22.82;53.24
46756;BME280;32506;52.826;-1.192;2023-09-18T11:39:32;99135.03;;;22.83;53.30
46756;BME280;32506;52.826;-1.192;2023-09-18T11:42:17;99135.22;;;22.77;53.41
46756;BME280;32506;52.826;-1.192;2023-09-18T11:44:43;99128.72;;;22.70;53.60
46756;BME280;32506;52.826;-1.192;2023-09-18T11:47:14;99126.84;;;22.61;54.02
46756;BME280;32506;52.826;-1.192;2023-09-18T11:49:59;99117.44;;;22.50;53.76
46756;BME280;32506;52.826;-1.192;2023-09-18T11:52:29;99122.94;;;22.41;53.71
46756;BME280;32506;52.826;-1.192;2023-09-18T11:54:57;99116.72;;;22.32;53.63
46756;BME280;32506;52.826;-1.192;2023-09-18T11:57:23;99114.50;;;22.25;53.93
46756;BME280;32506;52.826;-1.192;2023-09-18T11:59:50;99116.13;;;22.18;53.82
46756;BME280;32506;52.826;-1.192;2023-09-18T12:02:27;99115.50;;;22.12;54.07
46756;BME280;32506;52.826;-1.192;2023-09-18T12:05:09;99117.13;;;22.04;54.19
46756;BME280;32506;52.826;-1.192;2023-09-18T12:07:35;99133.94;;;21.98;54.26
46756;BME280;32506;52.826;-1.192;2023-09-18T12:10:00;99127.06;;;21.91;54.29
46756;BME280;32506;52.826;-1.192;2023-09-18T12:12:30;99133.81;;;21.85;54.74
46756;BME280;32506;52.826;-1.192;2023-09-18T12:14:56;99131.28;;;21.80;54.73
46756;BME280;32506;52.826;-1.192;2023-09-18T12:17:22;99129.50;;;21.75;54.98
46756;BME280;32506;52.826;-1.192;2023-09-18T12:19:52;99124.25;;;21.70;55.13
46756;BME280;32506;52.826;-1.192;2023-09-18T12:22:26;99130.81;;;21.69;55.23
46756;BME280;32506;52.826;-1.192;2023-09-18T12:24:52;99133.03;;;21.67;55.55
46756;BME280;32506;52.826;-1.192;2023-09-18T12:27:18;99126.34;;;21.65;55.86
46756;BME280;32506;52.826;-1.192;2023-09-18T12:29:43;99144.09;;;21.62;55.96
46756;BME280;32506;52.826;-1.192;2023-09-18T12:32:10;99163.31;;;21.57;55.57
46756;BME280;32506;52.826;-1.192;2023-09-18T12:34:40;99170.75;;;21.51;54.89
46756;BME280;32506;52.826;-1.192;2023-09-18T12:37:08;99191.41;;;21.43;54.77
46756;BME280;32506;52.826;-1.192;2023-09-18T12:39:36;99194.94;;;21.35;54.86
46756;BME280;32506;52.826;-1.192;2023-09-18T12:42:01;99194.56;;;21.28;54.21
46756;BME280;32506;52.826;-1.192;2023-09-18T12:44:28;99191.88;;;21.19;53.94
46756;BME280;32506;52.826;-1.192;2023-09-18T12:46:54;99190.09;;;21.15;54.04
46756;BME280;32506;52.826;-1.192;2023-09-18T12:49:20;99193.13;;;21.13;53.98
46756;BME280;32506;52.826;-1.192;2023-09-18T12:51:59;99199.34;;;21.13;53.91
46756;BME280;32506;52.826;-1.192;2023-09-18T12:54:41;99193.13;;;21.13;54.01
46756;BME280;32506;52.826;-1.192;2023-09-18T12:57:09;99196.94;;;21.12;53.96
46756;BME280;32506;52.826;-1.192;2023-09-18T12:59:36;99201.78;;;21.15;53.87
46756;BME280;32506;52.826;-1.192;2023-09-18T13:02:06;99203.69;;;21.23;54.26
46756;BME280;32506;52.826;-1.192;2023-09-18T13:04:36;99212.66;;;21.33;55.06
46756;BME280;32506;52.826;-1.192;2023-09-18T13:07:22;99204.03;;;21.48;54.23
46756;BME280;32506;52.826;-1.192;2023-09-18T13:10:03;99198.44;;;21.62;54.29